createdAt,value
2023-03-22T00:00:19.451Z,77.15
2023-03-22T00:03:07.618Z,77.04
2023-03-22T00:05:35.952Z,76.98
2023-03-22T00:08:07.097Z,76.93
2023-03-22T00:10:40.872Z,76.98
2023-03-22T00:13:11.562Z,77.08
2023-03-22T00:16:02.784Z,78.45
2023-03-22T00:18:33.791Z,78.22
2023-03-22T00:21:01.967Z,77.96
2023-03-22T00:23:33.006Z,77.81
2023-03-22T00:26:24.634Z,77.85
2023-03-22T00:28:55.683Z,77.70
2023-03-22T00:31:26.763Z,77.71
2023-03-22T00:33:54.995Z,77.59
2023-03-22T00:36:23.173Z,77.59
2023-03-22T00:38:55.129Z,77.64
2023-03-22T00:41:23.840Z,77.52
2023-03-22T00:43:52.414Z,78.35
2023-03-22T00:46:31.449Z,78.32
2023-03-22T00:48:59.910Z,77.60
2023-03-22T00:51:27.939Z,77.96
2023-03-22T00:53:57.003Z,77.94
2023-03-22T00:56:28.798Z,78.32
2023-03-22T00:59:10.327Z,78.02
2023-03-22T01:01:39.119Z,78.02
2023-03-22T01:04:07.399Z,78.13
2023-03-22T01:06:36.178Z,77.97
2023-03-22T01:09:05.114Z,77.87
2023-03-22T01:11:33.255Z,77.63
2023-03-22T01:14:01.724Z,77.85
2023-03-22T01:16:30.659Z,78.46
2023-03-22T01:18:58.894Z,78.18
2023-03-22T01:21:29.848Z,78.21
2023-03-22T01:23:58.005Z,78.25
2023-03-22T01:26:26.392Z,78.31
2023-03-22T01:28:54.666Z,78.30
2023-03-22T01:31:22.849Z,78.23
2023-03-22T01:33:50.920Z,78.12
2023-03-22T01:36:19.449Z,78.17
2023-03-22T01:38:47.776Z,78.37
2023-03-22T01:41:17.497Z,79.23
2023-03-22T01:43:46.013Z,78.65
2023-03-22T01:46:14.269Z,78.12
2023-03-22T01:48:46.338Z,78.17
2023-03-22T01:51:25.453Z,78.27
2023-03-22T01:54:17.092Z,77.86
2023-03-22T01:56:46.075Z,77.81
2023-03-22T01:59:20.978Z,77.86
2023-03-22T02:02:20.400Z,77.61
2023-03-22T02:04:58.205Z,77.14
2023-03-22T02:07:33.638Z,76.89
2023-03-22T02:10:02.435Z,77.30
2023-03-22T02:13:01.222Z,77.45
2023-03-22T02:15:47.302Z,77.80
2023-03-22T02:18:44.678Z,78.02
2023-03-22T02:21:51.620Z,77.91
2023-03-22T02:24:51.036Z,78.20
2023-03-22T02:27:23.927Z,78.42
2023-03-22T02:30:24.411Z,78.55
2023-03-22T02:33:03.552Z,78.02
2023-03-22T02:35:47.265Z,77.94
2023-03-22T02:39:01.503Z,78.18
2023-03-22T02:41:46.333Z,78.31
2023-03-22T02:44:41.772Z,78.29
2023-03-22T02:47:24.193Z,78.34
2023-03-22T02:50:00.330Z,77.77
2023-03-22T02:53:06.216Z,78.23
2023-03-22T02:55:55.951Z,78.45
2023-03-22T02:58:45.993Z,78.41
2023-03-22T03:01:26.273Z,78.26
2023-03-22T03:04:00.155Z,78.38
2023-03-22T03:06:33.316Z,78.16
2023-03-22T03:09:05.021Z,77.26
2023-03-22T03:11:34.080Z,78.01
2023-03-22T03:14:02.456Z,78.40
2023-03-22T03:16:35.263Z,78.55
2023-03-22T03:19:14.786Z,78.56
2023-03-22T03:21:51.051Z,78.48
2023-03-22T03:24:25.979Z,77.99
2023-03-22T03:26:57.130Z,78.22
2023-03-22T03:29:47.615Z,78.65
2023-03-22T03:32:27.256Z,80.43
2023-03-22T03:35:03.740Z,79.60
2023-03-22T03:37:43.980Z,79.19
2023-03-22T03:40:18.960Z,78.84
2023-03-22T03:42:52.802Z,78.85
2023-03-22T03:45:22.261Z,78.37
2023-03-22T03:47:57.249Z,78.27
2023-03-22T03:50:27.178Z,78.49
2023-03-22T03:52:56.180Z,78.65
2023-03-22T03:55:26.594Z,78.85
2023-03-22T03:57:54.792Z,80.03
2023-03-22T04:00:23.245Z,81.60
2023-03-22T04:03:14.775Z,80.42
2023-03-22T04:05:54.826Z,79.79
2023-03-22T04:08:33.652Z,79.85
2023-03-22T04:11:02.149Z,79.71
2023-03-22T04:13:30.923Z,80.03
2023-03-22T04:16:02.275Z,79.25
2023-03-22T04:18:33.210Z,79.95
2023-03-22T04:21:22.913Z,79.86
2023-03-22T04:24:02.527Z,79.51
2023-03-22T04:26:34.190Z,79.33
2023-03-22T04:29:16.622Z,79.14
2023-03-22T04:31:48.933Z,79.02
2023-03-22T04:34:37.332Z,79.16
2023-03-22T04:37:11.392Z,79.13
2023-03-22T04:40:00.940Z,78.47
2023-03-22T04:42:47.004Z,78.42
2023-03-22T04:45:24.944Z,78.48
2023-03-22T04:47:56.579Z,78.80
2023-03-22T04:50:24.938Z,78.79
2023-03-22T04:52:55.465Z,78.68
2023-03-22T04:55:23.960Z,78.49
2023-03-22T04:57:54.921Z,78.50
2023-03-22T05:00:24.286Z,78.58
2023-03-22T05:02:53.288Z,78.63
2023-03-22T05:05:28.522Z,78.91
2023-03-22T05:07:57.117Z,78.90
2023-03-22T05:10:25.561Z,78.66
2023-03-22T05:12:54.825Z,78.65
2023-03-22T05:15:25.733Z,78.75
2023-03-22T05:17:55.905Z,78.99
2023-03-22T05:20:25.150Z,78.92
2023-03-22T05:23:14.722Z,78.64
2023-03-22T05:25:45.369Z,78.97
2023-03-22T05:28:19.746Z,79.01
2023-03-22T05:31:08.395Z,78.94
2023-03-22T05:33:58.156Z,78.75
2023-03-22T05:36:29.887Z,78.66
2023-03-22T05:39:22.834Z,78.44
2023-03-22T05:41:51.921Z,77.83
2023-03-22T05:44:20.096Z,76.81
2023-03-22T05:46:59.007Z,75.87
2023-03-22T05:49:43.399Z,75.30
2023-03-22T05:52:12.474Z,75.11
2023-03-22T05:55:07.480Z,75.56
2023-03-22T05:57:36.276Z,75.55
2023-03-22T06:00:13.574Z,75.30
2023-03-22T06:02:45.249Z,74.88
2023-03-22T06:05:16.055Z,73.31
2023-03-22T06:07:45.251Z,70.50
2023-03-22T06:10:18.343Z,66.90
2023-03-22T06:12:46.746Z,62.68
2023-03-22T06:15:22.585Z,57.20
2023-03-22T06:18:02.827Z,49.86
2023-03-22T06:20:35.410Z,48.71
2023-03-22T06:23:08.930Z,49.49
2023-03-22T06:25:37.454Z,45.83
2023-03-22T06:28:08.518Z,43.10
2023-03-22T06:30:38.125Z,41.58
2023-03-22T06:33:19.993Z,39.43
2023-03-22T06:35:51.987Z,29.99
2023-03-22T06:38:28.565Z,27.62
2023-03-22T06:40:56.843Z,28.36
2023-03-22T06:43:24.951Z,26.66
2023-03-22T06:45:57.486Z,27.05
2023-03-22T06:48:27.899Z,29.52
2023-03-22T06:51:04.074Z,27.69
2023-03-22T06:53:35.831Z,26.79
2023-03-22T06:56:05.219Z,26.88
2023-03-22T06:58:39.759Z,23.71
2023-03-22T07:01:07.983Z,23.93
2023-03-22T07:03:36.836Z,22.87
2023-03-22T07:06:09.623Z,22.09
2023-03-22T07:08:39.936Z,24.31
2023-03-22T07:11:08.959Z,26.77
2023-03-22T07:13:37.299Z,28.67
2023-03-22T07:16:10.441Z,29.72
2023-03-22T07:18:45.851Z,31.69
2023-03-22T07:21:15.587Z,32.48
2023-03-22T07:23:45.364Z,32.90
2023-03-22T07:26:15.925Z,34.51
2023-03-22T07:28:46.240Z,34.10
2023-03-22T07:31:16.194Z,32.71
2023-03-22T07:34:05.468Z,30.92
2023-03-22T07:36:40.491Z,30.19
2023-03-22T07:39:10.990Z,29.35
2023-03-22T07:41:42.525Z,25.97
2023-03-22T07:44:26.272Z,26.61
2023-03-22T07:47:22.183Z,23.30
2023-03-22T07:50:21.694Z,20.67
2023-03-22T07:52:54.481Z,21.76
2023-03-22T07:55:22.760Z,20.13
2023-03-22T07:57:51.365Z,19.58
2023-03-22T08:00:20.243Z,18.19
2023-03-22T08:02:54.568Z,18.98
2023-03-22T08:05:43.628Z,18.73
2023-03-22T08:08:14.258Z,18.30
2023-03-22T08:10:42.846Z,17.83
2023-03-22T08:13:11.228Z,16.73
2023-03-22T08:15:39.764Z,16.55
2023-03-22T08:18:08.906Z,15.41
2023-03-22T08:20:41.349Z,15.17
2023-03-22T08:23:16.879Z,14.95
2023-03-22T08:26:03.730Z,13.64
2023-03-22T08:28:33.988Z,14.33
2023-03-22T08:31:15.306Z,14.01
2023-03-22T08:33:45.379Z,13.65
2023-03-22T08:36:23.072Z,15.03
2023-03-22T08:38:58.151Z,15.56
2023-03-22T08:41:35.690Z,16.17
2023-03-22T08:44:04.129Z,16.83
2023-03-22T08:46:33.264Z,17.63
2023-03-22T08:49:03.405Z,19.10
2023-03-22T08:51:51.929Z,20.09
2023-03-22T08:54:41.306Z,21.00
2023-03-22T08:57:30.772Z,21.92
2023-03-22T09:00:22.316Z,23.19
2023-03-22T09:03:16.036Z,23.80
2023-03-22T09:05:44.765Z,24.33
2023-03-22T09:08:19.299Z,24.97
2023-03-22T09:10:51.988Z,25.89
2023-03-22T09:13:21.816Z,26.84
2023-03-22T09:15:55.286Z,27.35
2023-03-22T09:18:26.623Z,28.35
2023-03-22T09:20:55.519Z,28.73
2023-03-22T09:23:27.370Z,29.68
2023-03-22T09:25:55.860Z,30.43
2023-03-22T09:28:25.462Z,30.52
2023-03-22T09:30:54.491Z,30.94
2023-03-22T09:33:23.665Z,31.70
2023-03-22T09:35:54.722Z,31.96
2023-03-22T09:38:25.082Z,30.98
2023-03-22T09:41:02.210Z,30.72
2023-03-22T09:43:43.919Z,31.21
2023-03-22T09:46:18.000Z,31.57
2023-03-22T09:48:48.363Z,32.15
2023-03-22T09:51:30.027Z,32.61
2023-03-22T09:53:58.313Z,32.84
2023-03-22T09:56:33.028Z,33.56
2023-03-22T09:59:24.049Z,34.32
2023-03-22T10:01:55.745Z,34.70
2023-03-22T10:04:36.116Z,35.54
2023-03-22T10:07:11.772Z,36.03
2023-03-22T10:10:03.645Z,36.14
2023-03-22T10:12:42.668Z,36.19
2023-03-22T10:15:14.423Z,36.20
2023-03-22T10:17:47.119Z,36.37
2023-03-22T10:20:30.746Z,37.00
2023-03-22T10:23:02.008Z,37.92
2023-03-22T10:25:40.413Z,37.43
2023-03-22T10:28:44.232Z,36.86
2023-03-22T10:31:21.341Z,36.60
2023-03-22T10:34:00.637Z,36.25
2023-03-22T10:36:34.895Z,36.40
2023-03-22T10:39:29.241Z,36.35
2023-03-22T10:42:01.752Z,36.68
2023-03-22T10:44:37.028Z,36.40
2023-03-22T10:47:08.732Z,36.37
2023-03-22T10:49:51.648Z,36.94
2023-03-22T10:52:47.357Z,37.04
2023-03-22T10:55:17.184Z,36.28
2023-03-22T10:57:56.685Z,36.37
2023-03-22T11:00:28.889Z,36.47
2023-03-22T11:03:01.099Z,36.15
2023-03-22T11:05:30.712Z,36.82
2023-03-22T11:08:02.541Z,36.85
2023-03-22T11:10:35.500Z,36.53
2023-03-22T11:13:10.129Z,36.84
2023-03-22T11:15:50.252Z,37.36
2023-03-22T11:18:19.788Z,37.29
2023-03-22T11:21:00.787Z,36.84
2023-03-22T11:23:33.989Z,36.69
2023-03-22T11:26:09.737Z,37.40
2023-03-22T11:28:46.689Z,37.35
2023-03-22T11:31:17.867Z,37.00
2023-03-22T11:33:57.884Z,36.96
2023-03-22T11:36:34.761Z,36.83
2023-03-22T11:39:08.291Z,36.78
2023-03-22T11:41:39.710Z,36.80
2023-03-22T11:44:13.356Z,36.97
2023-03-22T11:46:51.942Z,36.97
2023-03-22T11:49:23.603Z,37.08
2023-03-22T11:51:56.479Z,37.04
2023-03-22T11:54:32.059Z,37.12
2023-03-22T11:57:04.789Z,37.49
2023-03-22T11:59:50.499Z,37.38
2023-03-22T12:02:26.675Z,37.52
2023-03-22T12:05:11.393Z,37.40
2023-03-22T12:07:42.022Z,37.07
2023-03-22T12:10:23.180Z,37.65
2023-03-22T12:13:22.570Z,37.88
2023-03-22T12:16:02.048Z,37.40
2023-03-22T12:18:42.029Z,37.33
2023-03-22T12:21:30.063Z,37.55
2023-03-22T12:24:42.805Z,37.47
2023-03-22T12:27:41.069Z,37.34
2023-03-22T12:30:25.559Z,37.04
2023-03-22T12:33:10.390Z,36.22
2023-03-22T12:35:45.202Z,35.68
2023-03-22T12:38:42.605Z,36.26
2023-03-22T12:41:34.169Z,36.06
2023-03-22T12:44:40.711Z,35.50
2023-03-22T12:47:28.232Z,33.79
2023-03-22T12:50:14.109Z,33.72
2023-03-22T12:52:47.423Z,33.56
2023-03-22T12:55:35.942Z,32.98
2023-03-22T12:58:09.225Z,33.80
2023-03-22T13:00:42.977Z,34.57
2023-03-22T13:03:18.077Z,35.03
2023-03-22T13:05:50.279Z,34.98
2023-03-22T13:08:22.597Z,35.13
2023-03-22T13:11:05.916Z,35.23
2023-03-22T13:13:42.933Z,35.36
2023-03-22T13:16:16.310Z,35.98
2023-03-22T13:18:45.399Z,36.88
2023-03-22T13:21:22.860Z,37.26
2023-03-22T13:24:06.476Z,37.14
2023-03-22T13:26:51.656Z,36.84
2023-03-22T13:29:25.984Z,37.22
2023-03-22T13:32:01.194Z,37.09
2023-03-22T13:34:45.737Z,37.34
2023-03-22T13:37:46.068Z,38.56
2023-03-22T13:40:29.929Z,39.46
2023-03-22T13:43:23.909Z,39.40
2023-03-22T13:46:04.193Z,39.87
2023-03-22T13:48:48.048Z,40.04
2023-03-22T13:51:25.733Z,40.29
2023-03-22T13:54:18.850Z,40.37
2023-03-22T13:57:01.531Z,40.82
2023-03-22T14:00:03.076Z,40.60
2023-03-22T14:02:42.517Z,40.50
2023-03-22T14:05:12.060Z,40.62
2023-03-22T14:07:46.792Z,40.33
2023-03-22T14:10:37.144Z,40.17
2023-03-22T14:13:15.798Z,39.76
2023-03-22T14:15:51.518Z,39.49
2023-03-22T14:18:30.687Z,39.54
2023-03-22T14:21:03.440Z,39.42
